Time;durP1;ratioP1;P1;durP2;ratioP2;P2;SDS_P1;SDS_P2;PMS_P1;PMS_P2;Temp;Humidity;BMP_temperature;BMP_pressure;BME280_temperature;BME280_humidity;BME280_pressure;Samples;Min_cycle;Max_cycle;Signal;HPM_P1;HPM_P2
2021/11/08 05:25:24;;;;;;;10.40;2.38;;;15.90;64.50;;;;;;4773322;30;20067;-78
2021/11/08 05:30:39;;;;;;;4.30;1.58;;;15.90;65.30;;;;;;4747988;30;20060;-77
2021/11/08 05:33:05;;;;;;;12.23;1.73;;;16.00;65.40;;;;;;4771977;30;20051;-73
2021/11/08 05:35:31;;;;;;;9.52;1.58;;;16.10;65.60;;;;;;4757587;30;20062;-78
2021/11/08 05:37:57;;;;;;;12.80;1.85;;;16.30;65.70;;;;;;4772527;30;20124;-76
2021/11/08 05:40:31;;;;;;;7.75;2.17;;;16.40;65.70;;;;;;4773051;30;20124;-75
2021/11/08 05:42:57;;;;;;;13.25;2.42;;;16.60;66.00;;;;;;4757425;30;20071;-79
2021/11/08 05:45:26;;;;;;;16.40;2.22;;;16.70;66.40;;;;;;4773045;30;20051;-79
2021/11/08 05:47:51;;;;;;;15.93;2.88;;;16.80;66.60;;;;;;4756861;30;20063;-78
2021/11/08 05:50:21;;;;;;;12.85;2.22;;;16.80;67.10;;;;;;4772790;30;20060;-76
2021/11/08 05:52:50;;;;;;;12.30;3.03;;;16.80;67.40;;;;;;4772021;30;20434;-77
2021/11/08 05:55:16;;;;;;;14.80;1.90;;;16.90;67.70;;;;;;4772987;30;20074;-76
2021/11/08 06:50:00;;;;;;;18.13;2.22;;;17.90;69.20;;;;;;4771358;30;20072;-81
2021/11/08 06:52:27;;;;;;;17.77;2.67;;;17.90;69.40;;;;;;4760793;30;20407;-80
2021/11/08 06:54:53;;;;;;;15.15;2.65;;;17.90;69.60;;;;;;4761472;30;20052;-78
2021/11/08 06:57:30;;;;;;;15.07;2.20;;;17.90;69.30;;;;;;4756171;30;20044;-76
2021/11/08 06:59:56;;;;;;;15.25;1.65;;;17.80;69.30;;;;;;4755907;30;20122;-78
2021/11/08 07:02:21;;;;;;;10.43;2.05;;;17.90;69.50;;;;;;4771933;30;20481;-82
2021/11/08 07:04:47;;;;;;;14.25;2.63;;;17.80;69.20;;;;;;4775260;30;20048;-79
2021/11/08 07:07:14;;;;;;;13.95;2.13;;;17.80;69.30;;;;;;4760077;30;20468;-78
2021/11/08 07:09:40;;;;;;;14.00;2.28;;;17.70;68.60;;;;;;4775166;30;20101;-80
2021/11/08 07:12:07;;;;;;;17.35;2.47;;;17.80;69.30;;;;;;4759926;30;20364;-75
2021/11/08 07:14:33;;;;;;;23.30;2.65;;;17.80;69.40;;;;;;4774709;30;20052;-76
2021/11/08 07:17:00;;;;;;;16.67;2.58;;;17.80;68.80;;;;;;4775516;30;20055;-80
2021/11/08 07:19:25;;;;;;;14.98;2.60;;;17.70;68.00;;;;;;4775651;30;20083;-76
2021/11/08 07:21:51;;;;;;;15.05;2.17;;;17.80;67.40;;;;;;4775080;30;20106;-76
2021/11/08 07:24:17;;;;;;;19.42;2.47;;;17.70;67.30;;;;;;4775395;30;20060;-77
2021/11/08 07:26:44;;;;;;;11.43;2.38;;;17.70;67.30;;;;;;4775055;30;20139;-76
2021/11/08 07:29:13;;;;;;;7.43;1.35;;;17.60;67.30;;;;;;4774875;30;20121;-76
2021/11/08 07:31:38;;;;;;;16.25;2.42;;;17.60;67.30;;;;;;4775865;30;20055;-77
2021/11/08 07:34:05;;;;;;;10.57;2.17;;;17.60;67.50;;;;;;4775018;30;20056;-77
2021/11/08 07:36:30;;;;;;;18.98;2.38;;;17.50;67.50;;;;;;4774679;30;20070;-76
2021/11/08 07:38:56;;;;;;;10.60;1.83;;;17.50;67.80;;;;;;4772052;30;20051;-78
2021/11/08 07:41:22;;;;;;;11.68;1.77;;;17.40;67.70;;;;;;4759794;30;20055;-78
2021/11/08 07:43:48;;;;;;;12.23;2.15;;;17.40;67.90;;;;;;4780465;30;20066;-74
2021/11/08 07:46:16;;;;;;;11.73;2.28;;;17.40;68.10;;;;;;4788745;30;20466;-80
2021/11/08 07:48:42;;;;;;;11.38;1.63;;;17.40;68.40;;;;;;4776637;30;20066;-77
2021/11/08 07:51:13;;;;;;;6.72;1.30;;;17.30;68.40;;;;;;4782394;30;20098;-77
2021/11/08 07:53:39;;;;;;;14.15;1.80;;;17.30;68.40;;;;;;4772906;30;20497;-77
2021/11/08 07:56:06;;;;;;;9.00;1.98;;;17.30;68.30;;;;;;4779119;30;20417;-76
2021/11/08 07:58:33;;;;;;;14.00;1.85;;;17.30;68.70;;;;;;4776668;30;20097;-76
2021/11/08 08:00:58;;;;;;;12.90;1.80;;;17.20;68.70;;;;;;4772205;30;20484;-78
2021/11/08 08:03:26;;;;;;;12.15;1.98;;;17.20;69.30;;;;;;4778184;30;20090;-79
2021/11/08 08:05:52;;;;;;;7.32;1.65;;;17.20;69.50;;;;;;4774293;30;20379;-77
2021/11/08 08:08:19;;;;;;;13.18;2.22;;;17.20;69.50;;;;;;4774087;30;20533;-80
2021/11/08 08:10:46;;;;;;;9.15;2.10;;;17.10;69.80;;;;;;4786531;30;20391;-75
2021/11/08 08:13:12;;;;;;;14.10;1.80;;;17.10;69.80;;;;;;4791798;30;20433;-73
2021/11/08 08:15:38;;;;;;;16.92;2.47;;;17.10;69.90;;;;;;4806080;29;20167;-76
2021/11/08 08:18:04;;;;;;;13.20;1.85;;;17.00;69.80;;;;;;4760315;30;20051;-75
2021/11/08 08:20:33;;;;;;;13.75;1.95;;;17.00;70.20;;;;;;4773802;30;20136;-76
2021/11/08 08:22:59;;;;;;;14.23;2.15;;;17.00;70.20;;;;;;4774553;30;20392;-77
2021/11/08 08:25:24;;;;;;;9.38;1.58;;;17.00;70.20;;;;;;4774440;30;20052;-77
2021/11/08 08:27:51;;;;;;;11.43;1.88;;;17.00;70.20;;;;;;4774907;30;20095;-75
2021/11/08 08:30:17;;;;;;;11.48;1.85;;;16.90;70.10;;;;;;4774563;30;20052;-76
2021/11/08 08:32:43;;;;;;;11.55;1.73;;;16.90;70.10;;;;;;4774462;30;20391;-76
2021/11/08 08:35:10;;;;;;;7.65;1.58;;;16.90;70.10;;;;;;4774046;30;20070;-75
2021/11/08 08:37:36;;;;;;;7.97;1.50;;;16.90;70.10;;;;;;4774117;30;20066;-77
2021/11/08 08:40:04;;;;;;;7.65;1.60;;;16.90;70.10;;;;;;4758619;30;20139;-74
2021/11/08 08:42:29;;;;;;;6.70;1.52;;;16.90;70.20;;;;;;4773217;30;20051;-75
2021/11/08 08:44:55;;;;;;;5.45;0.90;;;16.90;70.10;;;;;;4774027;30;20448;-75
2021/11/08 08:47:21;;;;;;;9.60;1.42;;;16.90;70.10;;;;;;4774101;30;20444;-75
2021/11/08 08:49:48;;;;;;;8.07;2.05;;;16.90;70.10;;;;;;4773907;30;20052;-76
2021/11/08 08:52:14;;;;;;;5.47;1.10;;;16.90;70.10;;;;;;4773953;30;20087;-75
2021/11/08 08:54:41;;;;;;;7.03;1.40;;;16.90;70.20;;;;;;4773924;30;20047;-75
2021/11/08 08:57:09;;;;;;;6.80;1.48;;;16.90;70.10;;;;;;4773820;30;20526;-75
2021/11/08 08:59:36;;;;;;;10.50;1.48;;;16.90;70.20;;;;;;4788185;30;20055;-76
2021/11/08 09:02:02;;;;;;;7.78;1.60;;;16.80;70.20;;;;;;4773524;30;20090;-75
2021/11/08 09:04:28;;;;;;;6.45;1.42;;;16.80;70.10;;;;;;4773526;30;20482;-76
2021/11/08 09:06:56;;;;;;;8.32;1.80;;;16.80;70.20;;;;;;4758102;30;20142;-75
2021/11/08 09:09:22;;;;;;;5.43;1.33;;;16.80;70.20;;;;;;4773677;30;20109;-75
2021/11/08 09:11:48;;;;;;;7.00;1.02;;;16.80;70.20;;;;;;4773469;30;20056;-77
2021/11/08 09:14:14;;;;;;;5.90;1.00;;;16.80;70.30;;;;;;4773749;30;20058;-76
2021/11/08 09:16:40;;;;;;;7.80;1.60;;;16.80;70.30;;;;;;4773545;30;20541;-77
2021/11/08 09:19:06;;;;;;;6.95;1.25;;;16.80;70.40;;;;;;4758037;30;20491;-75
2021/11/08 09:21:32;;;;;;;9.30;1.60;;;16.80;70.40;;;;;;4762573;30;20120;-75
2021/11/08 09:24:00;;;;;;;5.53;1.10;;;16.80;70.50;;;;;;4755416;30;20071;-75
2021/11/08 09:26:28;;;;;;;6.90;1.55;;;16.80;70.50;;;;;;4754723;30;20121;-76
2021/11/08 09:28:55;;;;;;;8.40;1.50;;;16.80;70.50;;;;;;4755169;30;20480;-75
2021/11/08 09:31:22;;;;;;;6.45;1.90;;;16.80;70.60;;;;;;4755251;30;20149;-77
2021/11/08 09:33:52;;;;;;;5.63;1.10;;;16.80;70.60;;;;;;4755154;30;20575;-77
2021/11/08 09:36:18;;;;;;;3.75;1.13;;;16.80;70.60;;;;;;4755308;30;20052;-76
2021/11/08 09:38:56;;;;;;;8.15;1.27;;;16.80;70.70;;;;;;4755318;30;20180;-76
2021/11/08 09:41:28;;;;;;;7.47;1.63;;;16.80;70.60;;;;;;4755688;30;20091;-76
2021/11/08 09:43:55;;;;;;;6.90;1.00;;;16.80;70.60;;;;;;4755503;30;20151;-74
2021/11/08 09:46:22;;;;;;;6.53;1.77;;;16.80;70.60;;;;;;4754706;30;20066;-75
2021/11/08 09:48:50;;;;;;;6.78;1.38;;;16.80;70.60;;;;;;4755110;30;20113;-76
2021/11/08 09:51:16;;;;;;;3.72;0.98;;;16.80;70.60;;;;;;4755854;30;20389;-76
2021/11/08 09:53:42;;;;;;;4.43;0.88;;;16.80;70.50;;;;;;4754986;30;20059;-76
2021/11/08 09:56:09;;;;;;;4.35;0.75;;;16.80;70.40;;;;;;4755136;30;20507;-76
2021/11/08 09:58:35;;;;;;;2.85;0.90;;;16.80;70.40;;;;;;4754916;30;20060;-76
2021/11/08 10:01:10;;;;;;;3.35;0.65;;;16.90;70.40;;;;;;4755033;30;20059;-75
2021/11/08 10:03:37;;;;;;;6.80;1.30;;;16.90;70.30;;;;;;4739336;30;20121;-76
2021/11/08 10:06:04;;;;;;;4.00;0.88;;;16.90;70.30;;;;;;4739406;30;20456;-76
2021/11/08 10:08:33;;;;;;;4.15;1.17;;;16.90;70.20;;;;;;4755029;30;20407;-74
2021/11/08 10:11:10;;;;;;;3.22;1.00;;;16.90;70.20;;;;;;4739709;30;20135;-75
2021/11/08 10:13:37;;;;;;;6.15;1.20;;;16.90;70.20;;;;;;4754657;30;20377;-75
2021/11/08 10:16:11;;;;;;;5.45;1.23;;;16.90;70.10;;;;;;4739236;30;20063;-74
2021/11/08 10:18:40;;;;;;;3.70;0.82;;;16.90;70.20;;;;;;4754568;30;20048;-74
2021/11/08 10:21:10;;;;;;;3.35;0.70;;;16.90;70.20;;;;;;4776074;30;20594;-75
2021/11/08 10:23:38;;;;;;;4.18;0.90;;;16.90;70.30;;;;;;4772640;30;20091;-75
2021/11/08 10:26:15;;;;;;;2.85;0.77;;;16.90;70.40;;;;;;4772285;30;20061;-76
2021/11/08 10:28:41;;;;;;;2.25;0.73;;;16.90;70.30;;;;;;4756841;30;20134;-75
2021/11/08 10:31:15;;;;;;;4.43;1.08;;;16.90;70.40;;;;;;4772287;30;20048;-76
2021/11/08 10:33:43;;;;;;;3.67;0.63;;;16.80;70.30;;;;;;4772223;30;20135;-75
2021/11/08 10:36:15;;;;;;;5.07;1.02;;;16.80;70.30;;;;;;4772166;30;20070;-75
2021/11/08 10:38:46;;;;;;;5.03;0.80;;;16.80;70.40;;;;;;4772533;30;20142;-77
2021/11/08 10:41:25;;;;;;;4.32;0.85;;;16.80;70.40;;;;;;4772316;30;20125;-74
2021/11/08 10:43:58;;;;;;;4.28;0.90;;;16.80;70.40;;;;;;4771762;30;20543;-75
2021/11/08 10:46:29;;;;;;;2.03;0.63;;;16.80;70.50;;;;;;4771870;30;20056;-75
2021/11/08 10:48:59;;;;;;;5.53;1.48;;;16.80;70.40;;;;;;4754636;30;20298;-74
2021/11/08 10:51:28;;;;;;;4.45;1.10;;;16.80;70.40;;;;;;4754679;30;20070;-74
2021/11/08 10:53:56;;;;;;;3.42;0.70;;;16.80;70.40;;;;;;4754374;30;20468;-75
2021/11/08 10:56:38;;;;;;;3.90;0.85;;;16.80;70.40;;;;;;4754511;30;20052;-76
2021/11/08 10:59:16;;;;;;;3.60;0.63;;;16.80;70.40;;;;;;4768446;30;20044;-75
2021/11/08 11:01:51;;;;;;;3.30;0.70;;;16.80;71.10;;;;;;4768538;30;20056;-74
2021/11/08 11:04:27;;;;;;;1.83;0.68;;;16.80;70.50;;;;;;4754309;30;20056;-75
2021/11/08 11:06:52;;;;;;;3.05;0.60;;;16.80;70.50;;;;;;4754452;30;20060;-76
2021/11/08 11:09:22;;;;;;;2.10;0.70;;;16.80;70.50;;;;;;4753961;30;20157;-76
2021/11/08 11:12:03;;;;;;;3.95;0.70;;;16.80;70.50;;;;;;4741614;30;20059;-74
2021/11/08 11:14:48;;;;;;;2.72;0.82;;;16.80;70.50;;;;;;4785787;30;20472;-75
2021/11/08 11:17:22;;;;;;;5.28;0.85;;;16.80;70.50;;;;;;4771249;30;20067;-76
2021/11/08 11:19:48;;;;;;;4.18;0.95;;;16.80;71.20;;;;;;4771694;30;20056;-75
2021/11/08 11:22:18;;;;;;;4.03;0.77;;;16.80;70.60;;;;;;4771714;30;20206;-74
2021/11/08 11:24:50;;;;;;;4.60;0.95;;;16.80;70.60;;;;;;4756305;30;20091;-75
2021/11/08 11:27:27;;;;;;;4.47;0.70;;;16.80;70.60;;;;;;4771983;30;20111;-74
2021/11/08 11:30:05;;;;;;;6.15;1.35;;;16.80;70.60;;;;;;4771397;30;20047;-77
2021/11/08 11:32:31;;;;;;;8.15;1.05;;;16.70;70.40;;;;;;4770273;30;20048;-76
2021/11/08 11:34:57;;;;;;;3.88;0.88;;;16.70;70.40;;;;;;4771346;30;20357;-78
2021/11/08 11:37:26;;;;;;;3.92;1.20;;;16.80;70.30;;;;;;4746064;30;20060;-77
2021/11/08 11:40:21;;;;;;;3.10;0.70;;;16.70;70.00;;;;;;4770527;30;20048;-77
2021/11/08 11:42:59;;;;;;;5.80;1.15;;;16.70;70.10;;;;;;4751209;30;20055;-77
2021/11/08 11:45:29;;;;;;;3.47;0.70;;;16.80;70.30;;;;;;4759664;30;20541;-88
2021/11/08 11:48:15;;;;;;;3.65;0.63;;;17.00;70.40;;;;;;4785074;30;20070;-78
2021/11/08 11:50:40;;;;;;;3.35;0.90;;;17.10;71.00;;;;;;4770129;30;20463;-83
2021/11/08 11:53:06;;;;;;;5.70;1.20;;;17.20;70.40;;;;;;4772501;30;20063;-78
2021/11/08 11:55:35;;;;;;;4.30;1.13;;;17.30;70.20;;;;;;4779788;30;20039;-78
2021/11/08 11:58:01;;;;;;;4.05;1.10;;;17.30;69.80;;;;;;4792490;30;20055;-79
2021/11/08 12:00:41;;;;;;;3.63;0.77;;;17.40;69.60;;;;;;4791611;29;20090;-79
2021/11/08 12:03:07;;;;;;;4.50;0.80;;;17.40;69.20;;;;;;4767870;30;20063;-80
2021/11/08 12:05:37;;;;;;;4.53;0.60;;;17.40;69.00;;;;;;4767799;30;20051;-80
2021/11/08 12:08:07;;;;;;;5.60;1.00;;;17.40;68.70;;;;;;4773713;30;20055;-82
2021/11/08 12:10:42;;;;;;;4.10;0.52;;;17.40;68.70;;;;;;4758584;30;20134;-80
2021/11/08 12:13:21;;;;;;;4.53;0.93;;;17.40;68.80;;;;;;4758861;30;20117;-80
2021/11/08 12:15:48;;;;;;;3.95;0.70;;;17.40;68.90;;;;;;4773926;30;20378;-82
2021/11/08 12:18:16;;;;;;;2.88;0.65;;;17.40;69.10;;;;;;4774218;30;20055;-79
2021/11/08 12:20:43;;;;;;;6.70;1.02;;;17.40;69.40;;;;;;4758472;30;20141;-78
2021/11/08 12:23:21;;;;;;;3.80;0.60;;;17.40;69.50;;;;;;4773776;30;20067;-80
2021/11/08 12:25:47;;;;;;;6.13;0.68;;;17.30;68.20;;;;;;4758347;30;20055;-80
2021/11/08 12:28:23;;;;;;;2.70;0.60;;;17.00;68.40;;;;;;4774193;30;20058;-82
2021/11/08 12:30:52;;;;;;;5.45;0.57;;;17.00;69.80;;;;;;4758520;30;20539;-80
2021/11/08 12:33:36;;;;;;;5.45;0.80;;;17.00;70.10;;;;;;4771599;30;20082;-80
2021/11/08 12:36:11;;;;;;;10.57;1.00;;;17.00;70.50;;;;;;4759207;30;20487;-79
2021/11/08 12:38:51;;;;;;;7.68;1.38;;;17.00;70.50;;;;;;4774915;30;20071;-80
2021/11/08 12:41:25;;;;;;;5.05;0.60;;;17.10;70.50;;;;;;4758168;30;20067;-80
2021/11/08 12:43:58;;;;;;;;;;;17.00;70.40;;;;;;4756055;30;20146;-77
2021/11/08 12:46:47;;;;;;;3.87;0.90;;;17.00;70.40;;;;;;4772664;30;20353;-80
2021/11/08 12:49:18;;;;;;;6.22;0.80;;;17.00;70.40;;;;;;4777599;30;20090;-78
2021/11/08 12:52:00;;;;;;;3.75;0.90;;;17.00;70.40;;;;;;4790506;29;20083;-78
2021/11/08 12:54:28;;;;;;;6.45;0.95;;;17.00;70.40;;;;;;4787359;30;20075;-78
2021/11/08 12:57:08;;;;;;;9.35;0.80;;;17.00;70.60;;;;;;4765169;30;20408;-78
2021/11/08 12:59:47;;;;;;;2.60;0.68;;;17.00;70.40;;;;;;4741663;30;20811;-76
2021/11/08 13:02:26;;;;;;;6.57;0.82;;;17.00;70.60;;;;;;4770988;29;20051;-79
2021/11/08 13:05:01;;;;;;;4.57;0.95;;;17.00;70.70;;;;;;4768380;30;20052;-78
2021/11/08 13:07:36;;;;;;;3.53;0.80;;;17.00;70.80;;;;;;4770253;30;20051;-78
2021/11/08 13:10:07;;;;;;;5.20;0.60;;;17.00;70.70;;;;;;4773964;30;20151;-80
2021/11/08 13:12:40;;;;;;;3.10;0.55;;;16.90;70.70;;;;;;4773332;30;20059;-79
2021/11/08 13:15:10;;;;;;;;;;;16.90;70.50;;;;;;4757739;30;20055;-79
2021/11/08 13:17:54;;;;;;;3.45;0.60;;;16.90;70.10;;;;;;4773118;30;20311;-78
2021/11/08 13:20:21;;;;;;;;;;;16.90;70.60;;;;;;4773381;30;20059;-79
2021/11/08 13:22:51;;;;;;;5.95;0.60;;;16.90;70.30;;;;;;4773344;30;20325;-78
2021/11/08 13:25:24;;;;;;;2.42;0.30;;;16.90;70.60;;;;;;4773147;30;20056;-77
2021/11/08 13:27:53;;;;;;;4.45;1.27;;;16.90;70.60;;;;;;4773001;30;20094;-78
2021/11/08 13:30:34;;;;;;;3.53;0.50;;;16.80;70.40;;;;;;4773952;30;20422;-79
2021/11/08 13:33:01;;;;;;;2.85;0.70;;;16.80;70.40;;;;;;4773043;30;20051;-79
2021/11/08 13:35:30;;;;;;;2.33;0.50;;;16.80;70.80;;;;;;4772840;30;20449;-78
2021/11/08 13:38:04;;;;;;;4.30;0.73;;;16.80;70.70;;;;;;4772700;30;20121;-79
2021/11/08 13:40:31;;;;;;;4.22;0.65;;;16.80;70.70;;;;;;4772967;30;20059;-79
2021/11/08 13:43:12;;;;;;;2.67;0.50;;;16.80;70.70;;;;;;4773023;30;20439;-79
2021/11/08 13:45:51;;;;;;;2.88;0.40;;;16.80;70.70;;;;;;4772700;30;20225;-79
2021/11/08 13:48:21;;;;;;;4.13;0.40;;;16.80;70.80;;;;;;4757032;30;20078;-79
2021/11/08 13:50:47;;;;;;;1.83;0.50;;;16.80;70.80;;;;;;4757426;30;20415;-80
2021/11/08 13:53:27;;;;;;;6.43;0.80;;;16.80;70.90;;;;;;4773635;30;20047;-79
2021/11/08 13:55:59;;;;;;;2.47;0.75;;;16.80;70.90;;;;;;4772598;30;20130;-77
2021/11/08 13:58:25;;;;;;;2.35;0.70;;;16.80;70.90;;;;;;4772521;30;20126;-79
2021/11/08 14:00:52;;;;;;;3.35;0.45;;;16.80;70.90;;;;;;4772831;30;20048;-77
2021/11/08 14:03:17;;;;;;;2.63;0.82;;;16.80;70.90;;;;;;4772455;30;20063;-78
2021/11/08 14:05:51;;;;;;;2.08;0.52;;;16.80;70.90;;;;;;4772879;30;20052;-77
2021/11/08 14:08:24;;;;;;;1.38;0.43;;;16.80;70.80;;;;;;4772707;30;20063;-79
2021/11/08 14:10:56;;;;;;;1.17;0.20;;;16.80;70.80;;;;;;4772927;30;20087;-80
2021/11/08 14:13:40;;;;;;;1.33;0.30;;;16.80;70.90;;;;;;4770921;30;20135;-79
2021/11/08 14:16:08;;;;;;;1.92;0.40;;;16.80;70.80;;;;;;4772589;30;20051;-77
2021/11/08 14:18:35;;;;;;;1.85;0.52;;;16.80;70.90;;;;;;4772632;30;20063;-80
2021/11/08 14:21:12;;;;;;;2.83;0.40;;;16.80;70.80;;;;;;4772290;30;20063;-77
2021/11/08 14:23:40;;;;;;;2.25;0.47;;;16.80;70.80;;;;;;4772208;30;20400;-79
2021/11/08 14:26:18;;;;;;;4.43;0.75;;;16.80;70.70;;;;;;4772278;30;20109;-79
2021/11/08 14:28:46;;;;;;;5.63;0.90;;;16.80;70.70;;;;;;4770643;30;20081;-77
2021/11/08 14:31:21;;;;;;;4.38;0.52;;;16.80;70.60;;;;;;4771412;30;20121;-77
2021/11/08 14:33:47;;;;;;;5.90;0.90;;;16.80;70.70;;;;;;4771723;30;20058;-77
2021/11/08 14:36:22;;;;;;;10.90;1.85;;;16.80;70.80;;;;;;4756407;30;20056;-76
2021/11/08 14:39:13;;;;;;;7.13;1.23;;;16.80;70.90;;;;;;4764793;30;20403;-79
2021/11/08 14:41:53;;;;;;;8.68;1.05;;;16.80;70.60;;;;;;4776693;30;20119;-78
2021/11/08 14:44:21;;;;;;;9.05;1.50;;;16.90;70.10;;;;;;4785641;30;20438;-80
2021/11/08 14:46:51;;;;;;;12.00;1.30;;;16.90;69.60;;;;;;4772070;30;20051;-76
2021/11/08 14:49:24;;;;;;;11.43;1.27;;;16.80;69.10;;;;;;4756478;30;20482;-77
2021/11/08 14:52:07;;;;;;;9.88;1.35;;;16.80;69.30;;;;;;4771630;30;20052;-75
2021/11/08 14:54:35;;;;;;;6.63;1.10;;;16.80;69.40;;;;;;4771937;30;20066;-77
2021/11/08 14:57:06;;;;;;;18.20;1.73;;;16.70;69.60;;;;;;4772072;30;20055;-78
2021/11/08 14:59:35;;;;;;;10.77;1.23;;;16.80;69.70;;;;;;4771825;30;20425;-75
2021/11/08 15:02:08;;;;;;;7.85;1.20;;;16.90;69.70;;;;;;4771667;30;20079;-79
2021/11/08 15:04:45;;;;;;;10.53;1.40;;;17.00;69.40;;;;;;4756173;30;20066;-80
2021/11/08 15:07:11;;;;;;;12.65;1.60;;;17.10;68.90;;;;;;4755921;30;20048;-81
2021/11/08 15:09:52;;;;;;;11.55;1.70;;;17.20;68.90;;;;;;4756208;30;20051;-82
2021/11/08 15:12:31;;;;;;;11.50;1.67;;;17.30;69.10;;;;;;4739033;30;20056;-81
2021/11/08 15:15:01;;;;;;;15.40;1.48;;;17.40;69.20;;;;;;4753044;30;20068;-80
2021/11/08 15:17:39;;;;;;;14.23;1.52;;;17.40;69.20;;;;;;4767967;30;20499;-82
2021/11/08 15:20:26;;;;;;;11.68;1.10;;;17.50;69.40;;;;;;4756546;30;20060;-78
2021/11/08 15:22:54;;;;;;;19.90;1.80;;;17.50;69.40;;;;;;4755838;30;20059;-77
2021/11/08 15:25:23;;;;;;;9.05;1.02;;;17.50;69.20;;;;;;4758737;30;20158;-78
2021/11/08 15:28:03;;;;;;;8.32;1.42;;;17.60;69.30;;;;;;4775134;30;20426;-80
2021/11/08 15:30:30;;;;;;;17.35;2.25;;;17.50;69.20;;;;;;4774987;30;20043;-76
2021/11/08 15:33:08;;;;;;;11.57;0.93;;;17.50;69.00;;;;;;4774904;30;20122;-75
2021/11/08 15:36:01;;;;;;;5.25;1.02;;;17.60;68.90;;;;;;4759098;30;20059;-75
2021/11/08 15:38:33;;;;;;;8.00;1.02;;;17.60;68.80;;;;;;4781437;30;20052;-77
2021/11/08 15:41:03;;;;;;;13.32;1.48;;;17.60;68.80;;;;;;4777089;30;20070;-78
2021/11/08 15:43:28;;;;;;;10.23;0.98;;;17.70;68.80;;;;;;4792803;30;20134;-75
2021/11/08 15:46:03;;;;;;;6.20;0.90;;;17.80;68.80;;;;;;4790158;30;20139;-79
2021/11/08 15:48:33;;;;;;;6.20;0.75;;;17.80;68.60;;;;;;4759285;30;20438;-75
2021/11/08 15:51:00;;;;;;;5.60;0.73;;;17.90;68.50;;;;;;4774895;30;20495;-77
2021/11/08 15:53:27;;;;;;;8.80;3.58;;;18.00;68.40;;;;;;4781026;30;20126;-76
2021/11/08 15:55:54;;;;;;;15.93;6.25;;;18.10;68.30;;;;;;4792737;30;20090;-78
2021/11/08 15:58:19;;;;;;;18.98;6.82;;;18.20;68.20;;;;;;4792391;30;20048;-77
2021/11/08 16:01:02;;;;;;;18.17;9.73;;;17.90;68.00;;;;;;4777158;30;20052;-77
2021/11/08 16:03:30;;;;;;;11.50;7.20;;;17.90;69.40;;;;;;4762490;30;20523;-84
2021/11/08 16:05:56;;;;;;;9.50;4.50;;;18.00;68.50;;;;;;4774658;30;20126;-75
2021/11/08 16:08:22;;;;;;;6.35;3.42;;;18.00;67.40;;;;;;4758803;30;20066;-79
2021/11/08 16:10:51;;;;;;;9.20;3.35;;;18.10;66.60;;;;;;4774754;30;20058;-78
2021/11/08 16:13:17;;;;;;;5.97;2.03;;;18.10;65.80;;;;;;4774096;30;20044;-81
2021/11/08 16:15:48;;;;;;;3.42;1.55;;;18.10;65.70;;;;;;4773974;30;20186;-79
2021/11/08 16:18:15;;;;;;;7.50;1.23;;;18.10;65.40;;;;;;4792236;30;20047;-76
2021/11/08 16:20:44;;;;;;;4.55;1.13;;;18.10;65.20;;;;;;4785129;30;20056;-79
2021/11/08 16:23:10;;;;;;;3.65;0.98;;;18.10;65.10;;;;;;4774773;30;20078;-76
2021/11/08 16:25:39;;;;;;;4.80;0.77;;;18.20;65.00;;;;;;4774302;30;20051;-81
2021/11/08 16:28:05;;;;;;;3.65;0.95;;;18.10;64.60;;;;;;4758330;30;20048;-79
2021/11/08 16:30:31;;;;;;;3.60;0.90;;;18.10;65.00;;;;;;4770631;30;20082;-78
2021/11/08 16:33:02;;;;;;;5.15;1.02;;;18.10;65.00;;;;;;4768832;30;20048;-80
2021/11/08 16:36:02;;;;;;;5.53;1.13;;;18.00;65.30;;;;;;4755723;30;20329;-81
2021/11/08 16:42:37;;;;;;;3.72;0.70;;;18.10;66.60;;;;;;4756150;30;20051;-81
2021/11/08 17:15:08;;;;;;;6.28;0.82;;;18.00;70.70;;;;;;4775371;30;20059;-78
2021/11/08 17:17:37;;;;;;;10.65;1.23;;;18.00;70.60;;;;;;4791010;30;20374;-78
2021/11/08 17:20:14;;;;;;;9.50;1.05;;;17.90;70.90;;;;;;4775643;30;20040;-81
2021/11/08 17:22:46;;;;;;;5.57;0.55;;;17.90;70.80;;;;;;4760503;30;20042;-80
2021/11/08 17:25:23;;;;;;;9.90;1.13;;;17.90;70.80;;;;;;4761414;30;20359;-81
2021/11/08 17:27:49;;;;;;;8.57;0.88;;;17.90;70.70;;;;;;4772074;30;20047;-82
2021/11/08 17:30:16;;;;;;;4.93;0.73;;;17.90;70.70;;;;;;4757169;30;20052;-81
2021/11/08 17:32:43;;;;;;;5.95;0.65;;;17.80;70.80;;;;;;4757331;30;20127;-78
2021/11/08 17:35:14;;;;;;;4.88;0.80;;;17.80;70.70;;;;;;4772712;30;20084;-81
2021/11/08 17:38:00;;;;;;;4.47;0.85;;;17.70;70.80;;;;;;4744359;30;20139;-83
2021/11/08 17:40:29;;;;;;;2.58;0.50;;;17.70;71.00;;;;;;4756981;30;20043;-82
2021/11/08 17:42:56;;;;;;;6.38;0.70;;;17.70;71.00;;;;;;4756587;30;20060;-81
2021/11/08 17:45:26;;;;;;;3.13;0.50;;;17.60;70.90;;;;;;4756853;30;20479;-82
2021/11/08 17:47:53;;;;;;;5.63;0.85;;;17.60;71.00;;;;;;4785306;29;20047;-80
2021/11/08 17:50:24;;;;;;;4.07;0.60;;;17.60;71.00;;;;;;4760237;30;20051;-80
2021/11/08 17:52:50;;;;;;;4.20;0.93;;;17.60;71.00;;;;;;4760154;30;20104;-81
2021/11/08 17:55:20;;;;;;;5.70;0.80;;;17.60;70.90;;;;;;4759714;30;20360;-82
2021/11/08 17:57:52;;;;;;;3.63;0.55;;;17.60;70.90;;;;;;4759773;30;20043;-81
2021/11/08 18:00:18;;;;;;;5.38;0.73;;;17.60;70.90;;;;;;4760213;30;20043;-83
2021/11/08 18:02:46;;;;;;;3.80;0.70;;;17.60;71.00;;;;;;4759413;30;20047;-81
2021/11/08 18:05:13;;;;;;;5.75;0.90;;;17.60;71.10;;;;;;4759799;30;20479;-81
2021/11/08 18:07:44;;;;;;;2.47;0.70;;;17.50;71.00;;;;;;4760478;30;20051;-80
2021/11/08 18:10:15;;;;;;;2.78;0.60;;;17.50;71.00;;;;;;4775654;29;20459;-82
2021/11/08 18:12:42;;;;;;;4.75;0.75;;;17.50;71.10;;;;;;4791878;29;20077;-80
2021/11/08 18:15:09;;;;;;;3.03;1.02;;;17.50;71.10;;;;;;4794812;29;20380;-79
2021/11/08 18:17:35;;;;;;;1.65;0.45;;;17.50;71.10;;;;;;4819824;29;20043;-80
2021/11/08 18:20:11;;;;;;;11.23;1.35;;;17.40;71.00;;;;;;4792389;29;20043;-80
2021/11/08 18:22:53;;;;;;;4.57;0.70;;;17.40;71.10;;;;;;4792232;29;20461;-81
2021/11/08 18:28:00;;;;;;;3.53;0.90;;;17.40;71.20;;;;;;4792224;29;20065;-80
2021/11/08 18:30:28;;;;;;;4.30;0.80;;;17.40;71.30;;;;;;4787602;29;20112;-81
2021/11/08 18:32:53;;;;;;;3.20;0.60;;;17.40;71.40;;;;;;4825516;29;20082;-81
2021/11/08 18:35:19;;;;;;;3.88;0.95;;;17.40;71.50;;;;;;4825423;29;20082;-81
2021/11/08 18:37:46;;;;;;;2.05;0.80;;;17.40;71.60;;;;;;4795750;29;20052;-80
2021/11/08 18:40:12;;;;;;;5.63;0.98;;;17.30;71.60;;;;;;4795458;29;20088;-80
2021/11/08 18:42:38;;;;;;;4.07;0.95;;;17.30;71.50;;;;;;4825575;29;20099;-81
2021/11/08 18:45:09;;;;;;;7.13;1.35;;;17.20;71.70;;;;;;4795087;29;20457;-79
2021/11/08 18:47:35;;;;;;;5.30;1.35;;;17.10;72.80;;;;;;4826516;29;20052;-79
2021/11/08 18:50:04;;;;;;;4.07;1.00;;;16.90;73.00;;;;;;4809216;29;20046;-82
2021/11/08 18:52:30;;;;;;;4.28;0.95;;;17.00;72.80;;;;;;4825009;29;20133;-80
2021/11/08 18:54:56;;;;;;;3.30;1.05;;;17.00;72.80;;;;;;4788214;29;20133;-82
2021/11/08 18:57:24;;;;;;;5.03;1.02;;;17.00;72.60;;;;;;4808273;29;20054;-80
2021/11/08 18:59:52;;;;;;;6.45;1.58;;;17.10;72.70;;;;;;4795840;29;20126;-80
2021/11/08 19:02:25;;;;;;;4.35;0.80;;;17.10;72.70;;;;;;4798231;29;20055;-79
2021/11/08 19:05:08;;;;;;;;;;;17.10;72.70;;;;;;4814398;29;20077;-81
2021/11/08 19:10:14;;;;;;;3.55;1.05;;;17.10;72.60;;;;;;4815889;29;20058;-78
2021/11/08 19:12:42;;;;;;;4.10;1.02;;;17.10;72.70;;;;;;4830888;29;20477;-80
2021/11/08 19:15:10;;;;;;;2.65;0.88;;;17.10;72.60;;;;;;4831126;29;20042;-80
2021/11/08 19:17:36;;;;;;;3.72;1.30;;;17.10;72.60;;;;;;4816364;29;20050;-81
2021/11/08 19:20:05;;;;;;;2.10;0.80;;;17.10;72.60;;;;;;4831939;29;20116;-78
2021/11/08 19:22:31;;;;;;;3.75;1.02;;;17.10;72.50;;;;;;4831067;29;20050;-79
2021/11/08 19:24:57;;;;;;;2.78;0.80;;;17.10;72.50;;;;;;4815695;29;20103;-81
2021/11/08 19:27:26;;;;;;;4.68;1.00;;;17.10;72.40;;;;;;4816028;29;20063;-79
2021/11/08 19:29:57;;;;;;;4.57;1.27;;;17.10;72.40;;;;;;4816057;29;20057;-79
2021/11/08 19:32:32;;;;;;;2.15;0.75;;;17.10;72.40;;;;;;4801260;29;20495;-80
2021/11/08 19:38:00;;;;;;;3.55;0.80;;;17.10;72.30;;;;;;4815824;29;20054;-79
2021/11/08 19:40:34;;;;;;;2.33;0.90;;;17.10;72.30;;;;;;4831924;29;20073;-81
2021/11/08 19:43:03;;;;;;;;;;;17.10;72.30;;;;;;4814502;29;20066;-79
2021/11/08 19:45:30;;;;;;;2.55;0.80;;;17.10;71.80;;;;;;4797735;29;20272;-80
2021/11/08 19:47:57;;;;;;;3.53;0.95;;;17.10;72.40;;;;;;4810884;29;20154;-81
2021/11/08 19:50:24;;;;;;;6.35;1.15;;;17.10;72.30;;;;;;4784452;29;20065;-80
2021/11/08 19:52:50;;;;;;;4.28;1.00;;;17.10;72.90;;;;;;4797127;29;20047;-81
2021/11/08 19:55:17;;;;;;;2.95;0.82;;;17.10;72.20;;;;;;4797128;29;20043;-78
2021/11/08 19:57:43;;;;;;;3.28;0.73;;;17.10;72.20;;;;;;4813022;29;20133;-80
2021/11/08 20:00:12;;;;;;;3.45;0.80;;;17.10;72.10;;;;;;4781928;29;20051;-83
2021/11/08 20:02:39;;;;;;;3.42;0.85;;;17.10;72.00;;;;;;4797003;29;20082;-83